Time;durP1;ratioP1;P1;durP2;ratioP2;P2;SDS_P1;SDS_P2;PMS_P1;PMS_P2;Temp;Humidity;BMP_temperature;BMP_pressure;BME280_temperature;BME280_humidity;BME280_pressure;Samples;Min_cycle;Max_cycle;Signal;HPM_P1;HPM_P2
2021/06/08 00:01:52;;;;;;;18.47;17.47;;;;;;;;;;5032311;28;21253;-69
2021/06/08 00:04:19;;;;;;;18.23;17.00;;;;;;;;;;5032148;28;20488;-68
2021/06/08 00:06:47;;;;;;;17.30;16.30;;;;;;;;;;5031892;28;20455;-68
2021/06/08 00:09:13;;;;;;;16.73;15.83;;;;;;;;;;5032656;28;20475;-68
2021/06/08 00:11:40;;;;;;;15.67;14.87;;;;;;;;;;5032539;28;20865;-69
2021/06/08 00:14:07;;;;;;;15.80;15.00;;;;;;;;;;5032498;28;20465;-69
2021/06/08 00:16:33;;;;;;;15.30;14.50;;;;;;;;;;5031145;28;20948;-67
2021/06/08 00:19:00;;;;;;;13.67;12.90;;;;;;;;;;5032589;28;20445;-66
2021/06/08 00:21:26;;;;;;;14.47;13.57;;;;;;;;;;5032083;28;20445;-67
2021/06/08 00:23:55;;;;;;;14.27;13.37;;;;;;;;;;5032308;28;20468;-67
2021/06/08 00:26:21;;;;;;;14.77;13.70;;;;;;;;;;5031283;28;20452;-68
2021/06/08 00:28:48;;;;;;;14.57;13.77;;;;;;;;;;5031664;28;20883;-66
2021/06/08 00:31:15;;;;;;;13.93;13.13;;;;;;;;;;5032159;28;20484;-67
2021/06/08 00:33:41;;;;;;;14.50;13.60;;;;;;;;;;5031916;28;20868;-66
2021/06/08 00:36:10;;;;;;;13.70;13.00;;;;;;;;;;5031074;28;20449;-68
2021/06/08 00:38:37;;;;;;;13.77;13.03;;;;;;;;;;5032163;28;20457;-67
2021/06/08 00:41:05;;;;;;;13.00;12.30;;;;;;;;;;5032006;28;20822;-67
2021/06/08 00:43:31;;;;;;;13.80;13.10;;;;;;;;;;5031970;28;20886;-68
2021/06/08 00:45:58;;;;;;;13.53;12.80;;;;;;;;;;5031031;28;20956;-68
2021/06/08 00:48:25;;;;;;;13.27;12.47;;;;;;;;;;5031790;28;20487;-66
2021/06/08 00:50:51;;;;;;;12.63;11.93;;;;;;;;;;5031677;28;21011;-67
2021/06/08 00:53:18;;;;;;;13.50;12.77;;;;;;;;;;5031835;28;20476;-67
2021/06/08 00:55:45;;;;;;;15.10;14.00;;;;;;;;;;5031317;28;20531;-67
2021/06/08 00:58:13;;;;;;;14.07;13.27;;;;;;;;;;5031282;28;21022;-67
2021/06/08 01:00:39;;;;;;;14.77;13.87;;;;;;;;;;5031750;28;20445;-66
2021/06/08 01:03:06;;;;;;;14.17;13.37;;;;;;;;;;5031750;28;20484;-67
2021/06/08 01:05:33;;;;;;;15.40;14.50;;;;;;;;;;5031050;28;20448;-67
2021/06/08 01:07:59;;;;;;;15.43;14.63;;;;;;;;;;5031725;28;20932;-67
2021/06/08 01:10:26;;;;;;;14.67;13.60;;;;;;;;;;5031498;28;21003;-67
2021/06/08 01:12:53;;;;;;;14.63;13.73;;;;;;;;;;5031997;28;20455;-69
2021/06/08 01:15:22;;;;;;;15.57;14.67;;;;;;;;;;5035420;28;20454;-65
2021/06/08 01:17:50;;;;;;;16.07;14.93;;;;;;;;;;5035516;28;20448;-68
2021/06/08 01:20:18;;;;;;;15.80;14.90;;;;;;;;;;5035655;28;20464;-67
2021/06/08 01:22:46;;;;;;;15.63;14.73;;;;;;;;;;5035753;28;20454;-65
2021/06/08 01:25:13;;;;;;;16.50;15.50;;;;;;;;;;5034991;28;20506;-67
2021/06/08 01:27:40;;;;;;;17.07;15.73;;;;;;;;;;5034742;28;20454;-65
2021/06/08 01:30:07;;;;;;;16.70;15.73;;;;;;;;;;5035445;28;20507;-70
2021/06/08 01:32:34;;;;;;;17.67;16.47;;;;;;;;;;5035498;28;20503;-65
2021/06/08 01:35:01;;;;;;;17.07;16.03;;;;;;;;;;5035389;28;20474;-67
2021/06/08 01:37:27;;;;;;;17.77;16.70;;;;;;;;;;5034202;28;20944;-68
2021/06/08 01:39:56;;;;;;;17.23;16.20;;;;;;;;;;5035338;28;20456;-64
2021/06/08 01:42:23;;;;;;;18.00;16.93;;;;;;;;;;5035325;28;20482;-67
2021/06/08 01:44:50;;;;;;;17.70;16.60;;;;;;;;;;5035219;28;20468;-68
2021/06/08 01:47:16;;;;;;;18.20;17.00;;;;;;;;;;5034163;28;20455;-65
2021/06/08 01:49:43;;;;;;;18.43;17.30;;;;;;;;;;5035094;28;20459;-67
2021/06/08 01:52:14;;;;;;;18.93;17.63;;;;;;;;;;5034989;28;20448;-68
2021/06/08 01:54:45;;;;;;;17.97;16.80;;;;;;;;;;5035038;28;20494;-67
2021/06/08 01:57:15;;;;;;;17.93;16.83;;;;;;;;;;5034287;28;20459;-67
2021/06/08 01:59:50;;;;;;;17.53;16.53;;;;;;;;;;5035057;28;20950;-64
2021/06/08 02:02:20;;;;;;;18.67;17.50;;;;;;;;;;5035099;28;20432;-65
2021/06/08 02:04:47;;;;;;;19.53;18.23;;;;;;;;;;5034417;28;20980;-65
2021/06/08 02:07:30;;;;;;;17.97;16.87;;;;;;;;;;5034023;28;20448;-65
2021/06/08 02:09:59;;;;;;;18.50;17.40;;;;;;;;;;5034997;28;20444;-66
2021/06/08 02:12:27;;;;;;;17.33;16.33;;;;;;;;;;5034545;28;20455;-65
2021/06/08 02:14:58;;;;;;;18.90;17.50;;;;;;;;;;5034976;28;20474;-67
2021/06/08 02:17:27;;;;;;;18.27;17.23;;;;;;;;;;5033551;28;20943;-67
2021/06/08 02:19:56;;;;;;;19.93;18.73;;;;;;;;;;5034938;28;20448;-66
2021/06/08 02:22:24;;;;;;;18.67;17.67;;;;;;;;;;5034625;28;20814;-68
2021/06/08 02:24:52;;;;;;;18.90;17.80;;;;;;;;;;5034274;28;20476;-66
2021/06/08 02:27:21;;;;;;;19.13;18.03;;;;;;;;;;5033625;28;20498;-70
2021/06/08 02:29:49;;;;;;;18.13;17.13;;;;;;;;;;5034380;28;20445;-65
2021/06/08 02:32:16;;;;;;;19.67;18.47;;;;;;;;;;5034743;28;20452;-65
2021/06/08 02:34:44;;;;;;;19.90;18.60;;;;;;;;;;5034252;28;20841;-66
2021/06/08 02:37:11;;;;;;;20.00;18.70;;;;;;;;;;5033149;28;20972;-66
2021/06/08 02:39:40;;;;;;;19.40;18.20;;;;;;;;;;5034071;28;20503;-67
2021/06/08 02:42:07;;;;;;;18.90;17.90;;;;;;;;;;5033956;28;20978;-67
2021/06/08 02:44:34;;;;;;;19.00;17.80;;;;;;;;;;5034319;28;20476;-67
2021/06/08 02:47:02;;;;;;;19.40;18.30;;;;;;;;;;5033260;28;20449;-66
2021/06/08 02:49:30;;;;;;;19.27;18.07;;;;;;;;;;5034184;28;20510;-67
2021/06/08 02:51:57;;;;;;;18.83;17.70;;;;;;;;;;5033882;28;20484;-66
2021/06/08 02:54:24;;;;;;;19.40;18.20;;;;;;;;;;5033990;28;20464;-67
2021/06/08 02:56:51;;;;;;;19.23;18.13;;;;;;;;;;5032700;28;20445;-66
2021/06/08 02:59:17;;;;;;;19.77;18.57;;;;;;;;;;5034318;28;20459;-66
2021/06/08 03:01:46;;;;;;;19.87;18.77;;;;;;;;;;5033854;28;20535;-66
2021/06/08 03:04:16;;;;;;;19.37;18.27;;;;;;;;;;5033453;28;21218;-66
2021/06/08 03:06:49;;;;;;;19.90;18.70;;;;;;;;;;5033210;28;20445;-67
2021/06/08 03:09:17;;;;;;;19.90;18.70;;;;;;;;;;5033551;28;20449;-68
2021/06/08 03:11:46;;;;;;;19.50;18.27;;;;;;;;;;5033766;28;20480;-66
2021/06/08 03:14:15;;;;;;;19.73;18.40;;;;;;;;;;5033831;28;20475;-66
2021/06/08 03:16:44;;;;;;;18.63;17.53;;;;;;;;;;5032792;28;20453;-66
2021/06/08 03:19:12;;;;;;;20.10;18.90;;;;;;;;;;5033262;28;20459;-65
2021/06/08 03:21:42;;;;;;;19.47;18.00;;;;;;;;;;5033748;28;20456;-65
2021/06/08 03:24:10;;;;;;;18.90;17.90;;;;;;;;;;5033552;28;20499;-66
2021/06/08 03:26:38;;;;;;;19.10;18.00;;;;;;;;;;5032703;28;20453;-65
2021/06/08 03:29:07;;;;;;;18.50;17.40;;;;;;;;;;5033189;28;20448;-65
2021/06/08 03:31:34;;;;;;;20.00;18.80;;;;;;;;;;5033179;28;20476;-65
2021/06/08 03:34:01;;;;;;;19.60;18.50;;;;;;;;;;5033114;28;20468;-67
2021/06/08 03:36:29;;;;;;;18.90;17.70;;;;;;;;;;5031779;28;20448;-69
2021/06/08 03:38:58;;;;;;;19.27;18.17;;;;;;;;;;5033270;28;20563;-66
2021/06/08 03:41:24;;;;;;;18.43;17.33;;;;;;;;;;5032919;28;20524;-66
2021/06/08 03:43:51;;;;;;;18.60;17.40;;;;;;;;;;5032926;28;20904;-67
2021/06/08 03:46:18;;;;;;;19.40;18.30;;;;;;;;;;5031949;28;20543;-69
2021/06/08 03:48:45;;;;;;;18.90;17.80;;;;;;;;;;5033353;28;20444;-68
2021/06/08 03:51:11;;;;;;;18.00;17.00;;;;;;;;;;5032579;28;20485;-67
2021/06/08 03:53:39;;;;;;;19.50;18.40;;;;;;;;;;5032555;28;20479;-68
2021/06/08 03:56:07;;;;;;;19.33;18.23;;;;;;;;;;5032214;28;20452;-65
2021/06/08 03:58:35;;;;;;;19.00;17.80;;;;;;;;;;5032394;28;20457;-66
2021/06/08 04:01:02;;;;;;;18.20;17.10;;;;;;;;;;5032732;28;20449;-67
2021/06/08 04:03:29;;;;;;;19.57;18.37;;;;;;;;;;5055021;22;20480;-68
2021/06/08 04:05:56;;;;;;;18.87;17.87;;;;;;;;;;5009917;28;20461;-74
2021/06/08 04:08:23;;;;;;;19.07;17.97;;;;;;;;;;5023424;28;20433;-66
2021/06/08 04:10:49;;;;;;;19.50;18.23;;;;;;;;;;5031835;28;20874;-69
2021/06/08 04:13:18;;;;;;;18.73;17.57;;;;;;;;;;5032319;28;20523;-69
2021/06/08 04:15:45;;;;;;;19.60;18.40;;;;;;;;;;5031406;28;20453;-71
2021/06/08 04:18:12;;;;;;;19.00;17.80;;;;;;;;;;5031970;28;20471;-70
2021/06/08 04:20:38;;;;;;;19.50;18.27;;;;;;;;;;5032387;28;20503;-73
2021/06/08 04:23:24;;;;;;;20.03;18.80;;;;;;;;;;5009406;28;20441;-73
2021/06/08 04:25:50;;;;;;;18.70;17.60;;;;;;;;;;5031535;28;20830;-69
2021/06/08 04:28:20;;;;;;;19.70;18.60;;;;;;;;;;5032822;28;20451;-71
2021/06/08 04:30:47;;;;;;;19.27;18.03;;;;;;;;;;5032412;28;20480;-69
2021/06/08 04:33:14;;;;;;;18.27;17.17;;;;;;;;;;5032256;28;20943;-70
2021/06/08 04:35:42;;;;;;;17.73;16.73;;;;;;;;;;5031172;28;20499;-72
2021/06/08 04:38:09;;;;;;;18.50;17.30;;;;;;;;;;5031760;28;20455;-69
2021/06/08 04:40:37;;;;;;;18.40;17.40;;;;;;;;;;5031850;28;20451;-73
2021/06/08 04:43:03;;;;;;;19.07;18.00;;;;;;;;;;5031803;28;20455;-68
2021/06/08 04:45:31;;;;;;;18.60;17.50;;;;;;;;;;5030912;28;20473;-73
2021/06/08 04:47:58;;;;;;;17.93;16.80;;;;;;;;;;5031718;28;20506;-70
2021/06/08 04:50:26;;;;;;;18.80;17.80;;;;;;;;;;5031711;28;20567;-73
2021/06/08 04:52:56;;;;;;;17.30;16.40;;;;;;;;;;5031714;28;20448;-73
2021/06/08 04:55:24;;;;;;;18.37;17.03;;;;;;;;;;5030837;28;20469;-66
2021/06/08 04:57:50;;;;;;;18.43;17.40;;;;;;;;;;5031635;28;20452;-72
2021/06/08 05:00:19;;;;;;;17.13;16.23;;;;;;;;;;5031358;28;21001;-67
2021/06/08 05:02:50;;;;;;;18.10;16.90;;;;;;;;;;5031834;28;20491;-72
2021/06/08 05:05:19;;;;;;;18.40;17.40;;;;;;;;;;5030715;28;20999;-70
2021/06/08 05:07:49;;;;;;;18.60;17.60;;;;;;;;;;5031416;28;20444;-70
2021/06/08 05:10:16;;;;;;;22.80;21.60;;;;;;;;;;5031508;28;20457;-68
2021/06/08 05:12:44;;;;;;;18.10;17.20;;;;;;;;;;5031095;28;20971;-67
2021/06/08 05:15:12;;;;;;;17.00;16.10;;;;;;;;;;5031476;28;20832;-70
2021/06/08 05:17:39;;;;;;;17.77;16.70;;;;;;;;;;5031039;28;20510;-73
2021/06/08 05:20:09;;;;;;;17.67;16.67;;;;;;;;;;5031515;28;20460;-70
2021/06/08 05:22:36;;;;;;;16.87;15.70;;;;;;;;;;5031402;28;20464;-68
2021/06/08 05:25:03;;;;;;;20.00;18.07;;;;;;;;;;5031128;28;20464;-66
2021/06/08 05:27:30;;;;;;;17.87;16.77;;;;;;;;;;5030217;28;20824;-69
2021/06/08 05:29:58;;;;;;;17.33;16.43;;;;;;;;;;5031237;28;20452;-66
2021/06/08 05:32:24;;;;;;;16.37;15.47;;;;;;;;;;5031312;28;20491;-73
2021/06/08 05:34:51;;;;;;;17.13;15.93;;;;;;;;;;5030837;28;20469;-69
2021/06/08 05:37:19;;;;;;;17.23;16.03;;;;;;;;;;5030498;28;20453;-66
2021/06/08 05:39:46;;;;;;;18.13;17.03;;;;;;;;;;5031043;28;20932;-73
2021/06/08 05:42:16;;;;;;;16.13;15.20;;;;;;;;;;5031364;28;20473;-69
2021/06/08 05:44:42;;;;;;;17.00;16.00;;;;;;;;;;5031020;28;20480;-67
2021/06/08 05:47:09;;;;;;;17.33;16.20;;;;;;;;;;5030379;28;20852;-69
2021/06/08 05:49:36;;;;;;;17.00;15.70;;;;;;;;;;5031024;28;20458;-69
2021/06/08 05:52:04;;;;;;;17.80;16.80;;;;;;;;;;5030941;28;20508;-67
2021/06/08 05:54:32;;;;;;;16.43;15.53;;;;;;;;;;5031298;28;20538;-68
2021/06/08 05:56:59;;;;;;;16.90;15.90;;;;;;;;;;5030393;28;20452;-68
2021/06/08 05:59:25;;;;;;;15.80;15.00;;;;;;;;;;5033708;28;20479;-67
2021/06/08 06:01:52;;;;;;;14.93;14.03;;;;;;;;;;5035039;28;20445;-67
2021/06/08 06:04:20;;;;;;;14.53;13.63;;;;;;;;;;5034233;28;20484;-68
2021/06/08 06:06:47;;;;;;;16.13;15.23;;;;;;;;;;5034217;28;20543;-68
2021/06/08 06:09:15;;;;;;;15.77;14.80;;;;;;;;;;5034678;28;20461;-70
2021/06/08 06:11:44;;;;;;;15.63;14.80;;;;;;;;;;5034796;28;20480;-66
2021/06/08 06:14:10;;;;;;;15.43;14.43;;;;;;;;;;5034622;28;21005;-67
2021/06/08 06:16:40;;;;;;;15.60;14.70;;;;;;;;;;5033722;28;20453;-66
2021/06/08 06:19:07;;;;;;;17.47;16.33;;;;;;;;;;5034717;28;20457;-66
2021/06/08 06:21:33;;;;;;;16.30;15.50;;;;;;;;;;5034519;28;20452;-70
2021/06/08 06:24:01;;;;;;;15.83;15.00;;;;;;;;;;5034275;28;20478;-66
2021/06/08 06:26:27;;;;;;;16.67;15.67;;;;;;;;;;5033615;28;20862;-65
2021/06/08 06:28:56;;;;;;;15.57;14.60;;;;;;;;;;5034314;28;20460;-66
2021/06/08 06:31:23;;;;;;;15.40;14.60;;;;;;;;;;5034356;28;20484;-67
2021/06/08 06:33:53;;;;;;;16.00;14.90;;;;;;;;;;5034418;28;20969;-65
2021/06/08 06:36:20;;;;;;;15.37;14.47;;;;;;;;;;5033811;28;20562;-65
2021/06/08 06:38:48;;;;;;;16.63;15.63;;;;;;;;;;5034306;28;20456;-66
2021/06/08 06:41:16;;;;;;;15.57;14.67;;;;;;;;;;5034305;28;20444;-65
2021/06/08 06:43:43;;;;;;;14.80;14.00;;;;;;;;;;5034166;28;21056;-66
2021/06/08 06:46:12;;;;;;;14.10;13.13;;;;;;;;;;5033831;28;20448;-65
2021/06/08 06:48:38;;;;;;;13.97;13.23;;;;;;;;;;5034689;28;20793;-65
2021/06/08 06:51:05;;;;;;;14.40;13.50;;;;;;;;;;5034134;28;20507;-66
2021/06/08 06:53:32;;;;;;;13.83;13.03;;;;;;;;;;5034263;28;20452;-66
2021/06/08 06:55:58;;;;;;;12.00;11.23;;;;;;;;;;5033360;28;20519;-66
2021/06/08 06:58:25;;;;;;;12.97;12.07;;;;;;;;;;5033609;28;20448;-65
2021/06/08 07:00:54;;;;;;;12.17;11.47;;;;;;;;;;5033664;28;20540;-65
2021/06/08 07:03:25;;;;;;;11.33;10.73;;;;;;;;;;5033874;28;20448;-65
2021/06/08 07:05:52;;;;;;;12.57;11.77;;;;;;;;;;5032913;28;20455;-66
2021/06/08 07:08:22;;;;;;;13.03;12.23;;;;;;;;;;5033799;28;20472;-66
2021/06/08 07:10:49;;;;;;;13.63;12.87;;;;;;;;;;5032240;28;20595;-65
2021/06/08 07:13:16;;;;;;;12.33;11.60;;;;;;;;;;5033227;28;20798;-65
2021/06/08 07:15:43;;;;;;;11.70;11.00;;;;;;;;;;5033582;28;20462;-66
2021/06/08 07:18:10;;;;;;;12.70;11.73;;;;;;;;;;5037401;28;20472;-66
2021/06/08 07:20:38;;;;;;;12.80;12.00;;;;;;;;;;5036093;28;20449;-67
2021/06/08 07:23:05;;;;;;;11.57;10.83;;;;;;;;;;5036464;28;20457;-66
2021/06/08 07:25:36;;;;;;;12.27;11.57;;;;;;;;;;5035775;28;20832;-66
2021/06/08 07:28:02;;;;;;;13.10;12.40;;;;;;;;;;5035936;28;20486;-65
2021/06/08 07:30:30;;;;;;;13.40;12.70;;;;;;;;;;5033956;28;20448;-65
2021/06/08 07:33:01;;;;;;;11.73;10.90;;;;;;;;;;5033390;28;20510;-65
2021/06/08 07:35:32;;;;;;;11.80;11.00;;;;;;;;;;5033359;28;20479;-66
2021/06/08 07:38:07;;;;;;;11.80;11.10;;;;;;;;;;5033101;28;20453;-66
2021/06/08 07:40:37;;;;;;;11.50;10.80;;;;;;;;;;5033686;28;20448;-66
2021/06/08 07:43:05;;;;;;;11.90;10.90;;;;;;;;;;5033545;28;20797;-65
2021/06/08 07:45:34;;;;;;;11.17;10.37;;;;;;;;;;5032716;28;20905;-65
2021/06/08 07:48:02;;;;;;;11.07;10.40;;;;;;;;;;5033246;28;20468;-66
2021/06/08 07:50:31;;;;;;;11.47;10.70;;;;;;;;;;5033106;28;20464;-65
2021/06/08 07:52:58;;;;;;;10.63;10.03;;;;;;;;;;5033006;28;20460;-66
2021/06/08 07:55:26;;;;;;;10.10;9.30;;;;;;;;;;5032104;28;21056;-66
2021/06/08 07:57:53;;;;;;;10.43;9.83;;;;;;;;;;5032917;28;20445;-66
2021/06/08 08:00:20;;;;;;;10.73;10.10;;;;;;;;;;5032842;28;20825;-65
2021/06/08 08:02:50;;;;;;;10.90;10.30;;;;;;;;;;5033064;28;20449;-65
2021/06/08 08:05:18;;;;;;;10.63;9.73;;;;;;;;;;5031773;28;20477;-64
2021/06/08 08:07:45;;;;;;;10.20;9.57;;;;;;;;;;5033512;28;20503;-64
2021/06/08 08:10:12;;;;;;;9.37;8.80;;;;;;;;;;5033053;28;20445;-64
2021/06/08 08:12:41;;;;;;;9.30;8.67;;;;;;;;;;5032811;28;20484;-64
2021/06/08 08:15:09;;;;;;;10.20;9.50;;;;;;;;;;5032498;28;20551;-63
2021/06/08 08:17:36;;;;;;;9.33;8.73;;;;;;;;;;5032319;28;20456;-63
2021/06/08 08:20:06;;;;;;;10.07;9.37;;;;;;;;;;5032595;28;20455;-63
2021/06/08 08:22:33;;;;;;;9.73;8.80;;;;;;;;;;5032622;28;20509;-63
2021/06/08 08:25:00;;;;;;;9.90;9.10;;;;;;;;;;5032931;28;20461;-63
2021/06/08 08:27:26;;;;;;;9.77;8.90;;;;;;;;;;5032242;28;20452;-63
2021/06/08 08:29:54;;;;;;;8.83;8.23;;;;;;;;;;5032508;28;20510;-64
2021/06/08 08:32:22;;;;;;;9.00;8.30;;;;;;;;;;5032522;28;20506;-64
2021/06/08 08:34:49;;;;;;;8.23;7.63;;;;;;;;;;5032383;28;20468;-64
2021/06/08 08:37:16;;;;;;;7.93;7.23;;;;;;;;;;5032114;28;20566;-63
2021/06/08 08:39:42;;;;;;;7.40;6.80;;;;;;;;;;5032697;28;20444;-64
2021/06/08 08:42:09;;;;;;;7.63;7.03;;;;;;;;;;5032189;28;20453;-64
2021/06/08 08:44:37;;;;;;;7.10;6.50;;;;;;;;;;5032353;28;20473;-63
2021/06/08 08:47:05;;;;;;;5.80;5.30;;;;;;;;;;5031669;28;20452;-63
2021/06/08 08:49:31;;;;;;;5.80;5.33;;;;;;;;;;5032693;28;20459;-64
2021/06/08 08:51:58;;;;;;;5.53;5.10;;;;;;;;;;5032287;28;20491;-64
2021/06/08 08:54:25;;;;;;;5.50;5.10;;;;;;;;;;5032578;28;20464;-63
2021/06/08 08:56:52;;;;;;;5.90;5.40;;;;;;;;;;5031577;28;20449;-64
2021/06/08 08:59:20;;;;;;;6.30;5.60;;;;;;;;;;5031958;28;20460;-63
2021/06/08 09:01:50;;;;;;;6.07;5.53;;;;;;;;;;5032395;28;20449;-63
2021/06/08 09:04:19;;;;;;;6.00;5.60;;;;;;;;;;5032196;28;20542;-64
2021/06/08 09:06:46;;;;;;;4.80;4.40;;;;;;;;;;5031974;28;20452;-64
2021/06/08 09:09:12;;;;;;;4.87;4.47;;;;;;;;;;5032860;28;20455;-64
2021/06/08 09:11:41;;;;;;;5.37;4.93;;;;;;;;;;5032632;28;20993;-64
2021/06/08 09:14:09;;;;;;;4.80;4.37;;;;;;;;;;5032427;28;20481;-64
2021/06/08 09:16:35;;;;;;;4.90;4.50;;;;;;;;;;5031867;28;20453;-64
2021/06/08 09:19:03;;;;;;;5.13;4.70;;;;;;;;;;5032657;28;20449;-64
2021/06/08 09:21:33;;;;;;;4.80;4.40;;;;;;;;;;5033140;28;20447;-64
2021/06/08 09:24:14;;;;;;;4.47;4.00;;;;;;;;;;5032717;28;20587;-64
2021/06/08 09:26:49;;;;;;;8.43;3.60;;;;;;;;;;5031672;28;20966;-64
2021/06/08 09:29:27;;;;;;;5.13;4.40;;;;;;;;;;5032512;28;20812;-64
2021/06/08 09:32:11;;;;;;;7.93;3.87;;;;;;;;;;5032349;28;20856;-64
2021/06/08 09:34:38;;;;;;;3.90;3.60;;;;;;;;;;5035559;28;20475;-64
2021/06/08 09:37:06;;;;;;;4.13;3.80;;;;;;;;;;5035544;28;20451;-64
2021/06/08 09:39:33;;;;;;;4.47;3.80;;;;;;;;;;5036666;28;20448;-64
2021/06/08 09:42:00;;;;;;;3.70;3.40;;;;;;;;;;5036151;28;20441;-64
2021/06/08 09:44:26;;;;;;;3.87;3.13;;;;;;;;;;5036185;28;20468;-64
2021/06/08 09:46:53;;;;;;;4.00;3.60;;;;;;;;;;5035419;28;20479;-64
2021/06/08 09:49:21;;;;;;;4.00;3.27;;;;;;;;;;5036170;28;20946;-64
2021/06/08 09:51:53;;;;;;;4.10;3.50;;;;;;;;;;5036220;28;20491;-64
2021/06/08 09:54:31;;;;;;;3.00;2.50;;;;;;;;;;5036514;28;20472;-64
2021/06/08 09:57:14;;;;;;;3.50;3.20;;;;;;;;;;5036088;28;20448;-64
2021/06/08 09:59:41;;;;;;;3.80;3.40;;;;;;;;;;5036537;28;20478;-64
2021/06/08 10:02:21;;;;;;;3.70;3.40;;;;;;;;;;5037977;28;20440;-64
2021/06/08 10:04:47;;;;;;;3.50;3.13;;;;;;;;;;5056203;22;20501;-66
2021/06/08 10:07:25;;;;;;;4.87;3.70;;;;;;;;;;5014007;28;20465;-65
2021/06/08 10:10:04;;;;;;;3.07;2.67;;;;;;;;;;5025923;28;20455;-67
2021/06/08 10:12:30;;;;;;;6.97;3.30;;;;;;;;;;5034959;28;20468;-65
2021/06/08 10:15:05;;;;;;;3.97;3.27;;;;;;;;;;5034427;28;21010;-66
2021/06/08 10:17:31;;;;;;;3.43;3.13;;;;;;;;;;5033874;28;20449;-68
2021/06/08 10:20:16;;;;;;;4.20;2.70;;;;;;;;;;5034390;28;20453;-67
2021/06/08 10:22:43;;;;;;;4.40;3.17;;;;;;;;;;5033953;28;20437;-67
2021/06/08 10:25:12;;;;;;;3.30;3.00;;;;;;;;;;5034216;28;20470;-69
2021/06/08 10:27:38;;;;;;;4.13;2.63;;;;;;;;;;5033736;28;20456;-67
2021/06/08 10:30:06;;;;;;;2.90;2.70;;;;;;;;;;5034208;28;20543;-66
2021/06/08 10:32:32;;;;;;;2.93;2.50;;;;;;;;;;5034019;28;20541;-67
2021/06/08 10:34:59;;;;;;;3.47;2.30;;;;;;;;;;5034249;28;20472;-67
2021/06/08 10:37:26;;;;;;;4.47;2.63;;;;;;;;;;5033161;28;20547;-66
2021/06/08 10:39:55;;;;;;;3.03;2.00;;;;;;;;;;5033965;28;20449;-66
2021/06/08 10:42:23;;;;;;;7.93;2.60;;;;;;;;;;5033533;28;20824;-67
2021/06/08 10:44:50;;;;;;;3.13;2.57;;;;;;;;;;5033755;28;20543;-66
2021/06/08 10:47:22;;;;;;;4.57;2.43;;;;;;;;;;5033359;28;20448;-67
2021/06/08 10:49:49;;;;;;;2.40;2.20;;;;;;;;;;5033604;28;20906;-66
2021/06/08 10:52:17;;;;;;;5.07;2.97;;;;;;;;;;5033618;28;20477;-66
2021/06/08 10:54:45;;;;;;;2.50;2.13;;;;;;;;;;5033893;28;20465;-66
2021/06/08 10:57:14;;;;;;;3.27;2.97;;;;;;;;;;5032768;28;20451;-67
2021/06/08 10:59:42;;;;;;;3.33;2.47;;;;;;;;;;5033682;28;20544;-68
2021/06/08 11:02:09;;;;;;;4.60;2.40;;;;;;;;;;5033650;28;20495;-66
2021/06/08 11:04:50;;;;;;;2.57;2.30;;;;;;;;;;5033434;28;20918;-67
2021/06/08 11:07:17;;;;;;;3.40;2.93;;;;;;;;;;5032890;28;20495;-66
2021/06/08 11:09:43;;;;;;;2.67;2.47;;;;;;;;;;5033533;28;20449;-67
2021/06/08 11:12:27;;;;;;;2.77;2.30;;;;;;;;;;5033435;28;20484;-67
2021/06/08 11:14:59;;;;;;;3.00;2.20;;;;;;;;;;5033300;28;20560;-67
2021/06/08 11:17:43;;;;;;;2.50;2.30;;;;;;;;;;5033258;28;20491;-67
2021/06/08 11:20:20;;;;;;;4.03;2.63;;;;;;;;;;5034321;28;20853;-67
2021/06/08 11:22:54;;;;;;;2.63;2.43;;;;;;;;;;5033395;28;20440;-67
2021/06/08 11:25:31;;;;;;;2.43;2.20;;;;;;;;;;5032813;28;20464;-66
2021/06/08 11:27:59;;;;;;;3.80;2.57;;;;;;;;;;5033164;28;20456;-66
2021/06/08 11:30:28;;;;;;;1.90;1.70;;;;;;;;;;5033084;28;20445;-67
2021/06/08 11:32:55;;;;;;;2.30;2.10;;;;;;;;;;5033621;28;20485;-66
2021/06/08 11:35:23;;;;;;;2.57;2.23;;;;;;;;;;5032234;28;20483;-66
2021/06/08 11:37:51;;;;;;;2.20;2.00;;;;;;;;;;5033161;28;20445;-66
2021/06/08 11:40:37;;;;;;;3.10;2.27;;;;;;;;;;5033394;28;20453;-66
2021/06/08 11:43:05;;;;;;;2.33;2.13;;;;;;;;;;5032807;28;20449;-67
2021/06/08 11:45:33;;;;;;;2.97;2.50;;;;;;;;;;5032458;28;20479;-68
2021/06/08 11:48:00;;;;;;;2.33;2.13;;;;;;;;;;5032985;28;20455;-67
2021/06/08 11:50:39;;;;;;;2.10;1.90;;;;;;;;;;5032888;28;20478;-67
2021/06/08 11:53:06;;;;;;;6.87;2.37;;;;;;;;;;5032947;28;20490;-69
2021/06/08 11:55:33;;;;;;;4.53;2.37;;;;;;;;;;5031436;28;20465;-67
2021/06/08 11:58:00;;;;;;;2.37;2.07;;;;;;;;;;5032284;28;20958;-67
2021/06/08 12:03:29;;;;;;;2.20;1.73;;;;;;;;;;5167028;27;20630;-64
2021/06/08 12:05:56;;;;;;;2.20;2.00;;;;;;;;;;5149509;27;20981;-66
2021/06/08 12:08:23;;;;;;;2.20;2.00;;;;;;;;;;5150128;27;20836;-67
2021/06/08 12:10:50;;;;;;;2.60;2.27;;;;;;;;;;5150252;27;20956;-67
2021/06/08 12:13:17;;;;;;;2.60;2.27;;;;;;;;;;5150732;27;20449;-66
2021/06/08 12:15:45;;;;;;;2.30;2.10;;;;;;;;;;5149693;27;20455;-66
2021/06/08 12:18:12;;;;;;;2.60;2.40;;;;;;;;;;5150534;27;20504;-66
2021/06/08 12:20:41;;;;;;;2.97;2.63;;;;;;;;;;5150643;27;20529;-67
2021/06/08 12:23:08;;;;;;;3.00;2.50;;;;;;;;;;5150018;27;20479;-66
2021/06/08 12:25:35;;;;;;;3.63;2.80;;;;;;;;;;5149231;27;20520;-66
2021/06/08 12:28:02;;;;;;;3.50;2.80;;;;;;;;;;5150316;27;20455;-67
2021/06/08 12:30:29;;;;;;;2.20;2.00;;;;;;;;;;5149859;27;20552;-67
2021/06/08 12:32:57;;;;;;;3.23;2.60;;;;;;;;;;5149923;27;20956;-66
2021/06/08 12:35:25;;;;;;;2.80;2.20;;;;;;;;;;5149317;27;20459;-66
2021/06/08 12:37:53;;;;;;;2.10;1.90;;;;;;;;;;5149841;27;20447;-66
2021/06/08 12:40:21;;;;;;;2.77;2.13;;;;;;;;;;5149906;27;20438;-67
2021/06/08 12:42:47;;;;;;;2.40;1.70;;;;;;;;;;5149988;27;20478;-67
2021/06/08 12:45:21;;;;;;;2.33;2.13;;;;;;;;;;5149355;27;20475;-66
2021/06/08 12:47:47;;;;;;;1.80;1.70;;;;;;;;;;5149918;27;20427;-66
2021/06/08 12:50:20;;;;;;;2.40;2.20;;;;;;;;;;5149829;27;20439;-66
2021/06/08 12:52:57;;;;;;;2.47;2.10;;;;;;;;;;5149507;27;20931;-66
2021/06/08 12:55:27;;;;;;;3.00;2.13;;;;;;;;;;5149024;27;20467;-67
2021/06/08 12:57:57;;;;;;;2.70;1.87;;;;;;;;;;5149937;27;20468;-66
2021/06/08 13:00:25;;;;;;;2.37;2.00;;;;;;;;;;5149547;27;20463;-66
2021/06/08 13:02:51;;;;;;;2.10;1.90;;;;;;;;;;5149648;27;21005;-68
2021/06/08 13:05:20;;;;;;;2.00;1.70;;;;;;;;;;5148680;27;20471;-66
2021/06/08 13:07:48;;;;;;;3.23;1.60;;;;;;;;;;5149042;27;20447;-66
2021/06/08 13:10:21;;;;;;;2.07;1.87;;;;;;;;;;5149703;27;20474;-66
2021/06/08 13:12:49;;;;;;;2.13;1.93;;;;;;;;;;5146434;27;20448;-66
2021/06/08 13:15:17;;;;;;;3.70;1.90;;;;;;;;;;5134595;27;20472;-67
2021/06/08 13:17:43;;;;;;;2.40;1.77;;;;;;;;;;5134793;27;20501;-66
2021/06/08 13:20:21;;;;;;;1.57;1.47;;;;;;;;;;5137196;27;20444;-66
2021/06/08 13:22:47;;;;;;;1.83;1.73;;;;;;;;;;5134956;27;20502;-66
2021/06/08 13:25:14;;;;;;;1.83;1.03;;;;;;;;;;5135020;27;20464;-67
2021/06/08 13:27:43;;;;;;;1.40;1.30;;;;;;;;;;5135170;27;20452;-66
2021/06/08 13:30:16;;;;;;;2.60;1.53;;;;;;;;;;5134840;27;20459;-67
2021/06/08 13:32:42;;;;;;;2.20;1.47;;;;;;;;;;5135187;27;20425;-66
2021/06/08 13:35:10;;;;;;;1.37;1.23;;;;;;;;;;5134788;27;20472;-71
2021/06/08 13:37:37;;;;;;;1.87;1.50;;;;;;;;;;5134740;27;20444;-66
2021/06/08 13:40:18;;;;;;;3.33;1.23;;;;;;;;;;5134789;27;20440;-68
2021/06/08 13:42:56;;;;;;;1.50;1.20;;;;;;;;;;5134463;27;20878;-67
2021/06/08 13:45:28;;;;;;;1.70;1.40;;;;;;;;;;5134425;27;20508;-66
2021/06/08 13:47:57;;;;;;;1.30;1.20;;;;;;;;;;5134416;27;20931;-67
2021/06/08 13:50:25;;;;;;;1.20;1.10;;;;;;;;;;5134782;27;20535;-66
2021/06/08 13:53:03;;;;;;;3.07;1.50;;;;;;;;;;5134661;27;21033;-66
2021/06/08 13:55:30;;;;;;;2.37;1.33;;;;;;;;;;5133963;27;20476;-66
2021/06/08 14:01:09;;;;;;;3.70;1.30;;;;;;;;;;5107873;27;20428;-66
2021/06/08 14:03:36;;;;;;;1.90;1.30;;;;;;;;;;5134479;27;20454;-66
2021/06/08 14:06:09;;;;;;;2.23;1.40;;;;;;;;;;5133509;27;20472;-66
2021/06/08 14:08:36;;;;;;;1.87;1.27;;;;;;;;;;5134487;27;20870;-66
2021/06/08 14:11:04;;;;;;;2.53;1.20;;;;;;;;;;5134304;27;20821;-66
2021/06/08 14:13:35;;;;;;;2.73;1.17;;;;;;;;;;5134806;27;20851;-66
2021/06/08 14:16:02;;;;;;;3.20;1.13;;;;;;;;;;5133417;27;20474;-67
2021/06/08 14:18:28;;;;;;;1.20;1.10;;;;;;;;;;5134174;27;20497;-66
2021/06/08 14:20:56;;;;;;;1.50;1.10;;;;;;;;;;5134421;27;20451;-66
2021/06/08 14:23:23;;;;;;;1.40;1.30;;;;;;;;;;5133872;27;20472;-66
2021/06/08 14:25:50;;;;;;;3.60;1.37;;;;;;;;;;5132381;27;20521;-67
2021/06/08 14:28:16;;;;;;;1.60;1.37;;;;;;;;;;5134037;27;20492;-67
2021/06/08 14:30:44;;;;;;;2.33;1.60;;;;;;;;;;5133774;27;20447;-66
2021/06/08 14:33:11;;;;;;;1.47;1.30;;;;;;;;;;5134122;27;20436;-66
2021/06/08 14:35:37;;;;;;;1.87;1.33;;;;;;;;;;5133033;27;20464;-68
2021/06/08 14:38:04;;;;;;;1.90;1.60;;;;;;;;;;5134765;27;20502;-67
2021/06/08 14:40:31;;;;;;;1.93;1.40;;;;;;;;;;5133770;27;20501;-66
2021/06/08 14:42:57;;;;;;;1.30;1.20;;;;;;;;;;5133446;27;20472;-66